Time;durP1;ratioP1;P1;durP2;ratioP2;P2;SDS_P1;SDS_P2;PMS_P1;PMS_P2;Temp;Humidity;BMP_temperature;BMP_pressure;BME280_temperature;BME280_humidity;BME280_pressure;Samples;Min_cycle;Max_cycle;Signal;HPM_P1;HPM_P2
2023/04/03 00:00:04;;;;;;;0.10;0.10;;;5.80;99.90;;;;;;5000998;28;20478;-65
2023/04/03 00:02:30;;;;;;;0.10;0.10;;;5.70;99.90;;;;;;5002358;28;20050;-64
2023/04/03 00:04:56;;;;;;;0.00;0.00;;;5.70;99.90;;;;;;5006453;28;20437;-64
2023/04/03 00:07:21;;;;;;;0.10;0.10;;;5.60;99.90;;;;;;5003213;28;20088;-64
2023/04/03 00:09:47;;;;;;;0.00;0.00;;;5.60;99.90;;;;;;4999307;28;20042;-64
2023/04/03 00:12:12;;;;;;;0.00;0.00;;;5.60;99.90;;;;;;5008084;28;20046;-65
2023/04/03 00:14:38;;;;;;;0.10;0.10;;;5.60;99.90;;;;;;5000771;28;20482;-64
2023/04/03 00:17:03;;;;;;;0.20;0.20;;;5.50;99.90;;;;;;5003350;28;20878;-64
2023/04/03 00:19:29;;;;;;;0.10;0.10;;;5.50;99.90;;;;;;5008826;28;20041;-64
2023/04/03 00:21:55;;;;;;;0.10;0.10;;;5.60;99.90;;;;;;5007018;28;20045;-64
2023/04/03 00:24:21;;;;;;;0.10;0.10;;;5.50;99.90;;;;;;5004635;28;20405;-64
2023/04/03 00:26:46;;;;;;;0.90;0.85;;;5.50;99.90;;;;;;5008712;28;20396;-65
2023/04/03 00:29:12;;;;;;;0.17;0.17;;;5.40;99.90;;;;;;5010280;28;20046;-65
2023/04/03 00:31:37;;;;;;;0.20;0.20;;;5.40;99.90;;;;;;5009677;28;20164;-65
2023/04/03 00:34:03;;;;;;;0.15;0.15;;;5.40;99.90;;;;;;5005190;28;20060;-64
2023/04/03 00:36:29;;;;;;;0.50;0.50;;;5.30;99.90;;;;;;5002737;28;20509;-65
2023/04/03 00:38:55;;;;;;;0.10;0.10;;;5.40;99.90;;;;;;5006086;28;20041;-65
2023/04/03 00:41:21;;;;;;;0.10;0.10;;;5.40;99.90;;;;;;5002309;28;20038;-64
2023/04/03 00:43:47;;;;;;;0.10;0.10;;;5.40;99.90;;;;;;5007834;28;20080;-64
2023/04/03 00:46:12;;;;;;;0.75;0.75;;;5.30;99.90;;;;;;5007134;28;20089;-64
2023/04/03 00:48:44;;;;;;;0.10;0.10;;;5.40;99.90;;;;;;4998734;28;20433;-64
2023/04/03 00:51:14;;;;;;;0.00;0.00;;;5.30;99.90;;;;;;5006152;28;20088;-64
2023/04/03 00:53:47;;;;;;;0.32;0.32;;;5.30;99.90;;;;;;5001091;28;20064;-64
2023/04/03 00:56:17;;;;;;;0.10;0.10;;;5.30;99.90;;;;;;4998615;28;20071;-64
2023/04/03 00:58:59;;;;;;;0.30;0.30;;;5.30;99.90;;;;;;5011037;28;20095;-64
2023/04/03 01:01:28;;;;;;;0.10;0.10;;;5.30;99.90;;;;;;4996473;28;20174;-64
2023/04/03 01:03:54;;;;;;;0.25;0.25;;;5.20;99.90;;;;;;5005902;28;20038;-64
2023/04/03 01:06:33;;;;;;;0.10;0.10;;;5.30;99.90;;;;;;5021676;28;20163;-64
2023/04/03 01:09:00;;;;;;;0.10;0.10;;;5.20;99.90;;;;;;5000053;28;20080;-64
2023/04/03 01:11:25;;;;;;;1.45;1.38;;;5.10;99.90;;;;;;5005531;28;20084;-64
2023/04/03 01:13:51;;;;;;;0.20;0.20;;;5.20;99.90;;;;;;5002339;28;20042;-64
2023/04/03 01:16:18;;;;;;;0.10;0.10;;;5.10;99.90;;;;;;5009645;28;20049;-64
2023/04/03 01:18:45;;;;;;;0.10;0.10;;;5.10;99.90;;;;;;5002784;28;20050;-63
2023/04/03 01:21:29;;;;;;;0.10;0.10;;;5.10;99.90;;;;;;5007334;28;20063;-64
2023/04/03 01:24:28;;;;;;;0.10;0.10;;;5.00;99.90;;;;;;5012537;28;20049;-63
2023/04/03 01:26:53;;;;;;;0.10;0.10;;;5.00;99.90;;;;;;4997085;28;20045;-63
2023/04/03 01:29:19;;;;;;;0.30;0.30;;;5.00;99.90;;;;;;5007123;28;20056;-63
2023/04/03 01:31:56;;;;;;;0.10;0.10;;;5.00;99.90;;;;;;5011368;28;20065;-63
2023/04/03 01:34:23;;;;;;;0.10;0.10;;;5.00;99.90;;;;;;5011177;28;20153;-64
2023/04/03 01:36:48;;;;;;;0.10;0.10;;;4.90;99.90;;;;;;5003825;28;20129;-64
2023/04/03 01:39:14;;;;;;;0.10;0.10;;;4.90;99.90;;;;;;5005960;28;20770;-64
2023/04/03 01:41:40;;;;;;;0.45;0.45;;;4.80;99.90;;;;;;5010307;28;20053;-64
2023/04/03 01:44:05;;;;;;;0.10;0.10;;;4.90;99.90;;;;;;5009590;28;20042;-63
2023/04/03 01:46:31;;;;;;;0.40;0.40;;;4.80;99.90;;;;;;5002785;28;20057;-63
2023/04/03 01:48:57;;;;;;;0.10;0.10;;;4.90;99.90;;;;;;5011637;28;20074;-64
2023/04/03 01:51:22;;;;;;;4.57;1.10;;;4.80;99.90;;;;;;5005471;28;20150;-64
2023/04/03 01:53:48;;;;;;;0.52;0.52;;;4.70;99.90;;;;;;5010850;28;20438;-63
2023/04/03 01:56:14;;;;;;;0.10;0.10;;;4.70;99.90;;;;;;5007464;28;20046;-64
2023/04/03 01:58:39;;;;;;;0.10;0.10;;;4.60;99.90;;;;;;4997897;28;20131;-64
2023/04/03 02:01:05;;;;;;;0.10;0.10;;;4.60;99.90;;;;;;5011558;28;20045;-64
2023/04/03 02:03:31;;;;;;;0.15;0.15;;;4.60;99.90;;;;;;5009653;28;20091;-63
2023/04/03 02:05:57;;;;;;;0.10;0.10;;;4.50;99.90;;;;;;5005651;28;20037;-63
2023/04/03 02:08:22;;;;;;;0.00;0.00;;;4.60;99.90;;;;;;5005573;28;20145;-63
2023/04/03 02:10:49;;;;;;;0.05;0.05;;;4.60;99.90;;;;;;5009391;28;20046;-63
2023/04/03 02:13:16;;;;;;;0.10;0.10;;;4.60;99.90;;;;;;5011415;28;20038;-64
2023/04/03 02:15:42;;;;;;;0.10;0.10;;;4.50;99.90;;;;;;5003654;28;20040;-64
2023/04/03 02:18:08;;;;;;;0.10;0.10;;;4.60;99.90;;;;;;5009341;28;20038;-63
2023/04/03 02:20:33;;;;;;;0.47;0.47;;;4.50;99.90;;;;;;5006378;28;20051;-64
2023/04/03 02:22:59;;;;;;;0.10;0.10;;;4.40;99.90;;;;;;4999509;28;20069;-64
2023/04/03 02:25:25;;;;;;;0.00;0.00;;;4.50;99.90;;;;;;5009395;28;20253;-64
2023/04/03 02:27:51;;;;;;;0.00;0.00;;;4.30;99.90;;;;;;5003036;28;20061;-64
2023/04/03 02:30:17;;;;;;;0.10;0.10;;;4.40;99.90;;;;;;5005679;28;20692;-64
2023/04/03 02:32:43;;;;;;;0.10;0.10;;;4.40;99.90;;;;;;5008894;28;20133;-64
2023/04/03 02:35:10;;;;;;;0.00;0.00;;;4.40;99.90;;;;;;5009508;28;20042;-64
2023/04/03 02:37:36;;;;;;;0.10;0.10;;;4.30;99.90;;;;;;5000368;28;20112;-63
2023/04/03 02:40:03;;;;;;;0.45;0.45;;;4.30;99.90;;;;;;5016782;28;20042;-64
2023/04/03 02:42:29;;;;;;;0.10;0.10;;;4.30;99.90;;;;;;5000245;28;20042;-64
2023/04/03 02:44:55;;;;;;;2.03;1.75;;;4.20;99.90;;;;;;5008447;28;20386;-64
2023/04/03 02:47:20;;;;;;;0.35;0.35;;;4.20;99.90;;;;;;5009237;28;20057;-64
2023/04/03 02:49:46;;;;;;;0.10;0.10;;;4.10;99.90;;;;;;5004932;28;20049;-64
2023/04/03 02:52:13;;;;;;;0.20;0.20;;;4.10;99.90;;;;;;5004949;28;20037;-64
2023/04/03 02:54:39;;;;;;;0.10;0.10;;;4.10;99.90;;;;;;5007196;28;20042;-64
2023/04/03 02:57:05;;;;;;;0.10;0.10;;;4.10;99.90;;;;;;5008162;28;20113;-64
2023/04/03 02:59:30;;;;;;;0.10;0.10;;;4.10;99.90;;;;;;5009735;28;20034;-64
2023/04/03 03:01:56;;;;;;;0.10;0.10;;;4.10;99.90;;;;;;5009117;28;20506;-64
2023/04/03 03:04:22;;;;;;;0.10;0.10;;;4.00;99.90;;;;;;5006146;28;20053;-64
2023/04/03 03:06:47;;;;;;;0.25;0.25;;;4.10;99.90;;;;;;5004413;28;20134;-64
2023/04/03 03:09:14;;;;;;;0.30;0.30;;;4.10;99.90;;;;;;5000931;28;20038;-64
2023/04/03 03:11:40;;;;;;;0.10;0.10;;;4.00;99.90;;;;;;5000271;28;20171;-64
2023/04/03 03:14:05;;;;;;;0.15;0.15;;;4.00;99.90;;;;;;5007722;28;20593;-64
2023/04/03 03:16:31;;;;;;;0.10;0.10;;;3.90;99.90;;;;;;5004257;28;20049;-64
2023/04/03 03:18:56;;;;;;;0.10;0.10;;;3.90;99.90;;;;;;5008720;28;20058;-64
2023/04/03 03:21:22;;;;;;;0.40;0.40;;;4.00;99.90;;;;;;5010217;28;20723;-64
2023/04/03 03:23:48;;;;;;;0.08;0.08;;;4.00;99.90;;;;;;5007534;28;20045;-64
2023/04/03 03:26:13;;;;;;;0.10;0.10;;;3.90;99.90;;;;;;5009921;28;20038;-64
2023/04/03 03:28:40;;;;;;;0.00;0.00;;;3.90;99.90;;;;;;5014066;28;20050;-64
2023/04/03 03:31:06;;;;;;;0.10;0.10;;;3.90;99.90;;;;;;5004882;28;20046;-64
2023/04/03 03:33:32;;;;;;;0.10;0.10;;;3.80;99.90;;;;;;5004477;28;20394;-64
2023/04/03 03:35:58;;;;;;;0.10;0.10;;;3.80;99.90;;;;;;5002182;28;20049;-64
2023/04/03 03:38:24;;;;;;;0.98;0.98;;;3.80;99.90;;;;;;5014071;28;20034;-64
2023/04/03 03:40:50;;;;;;;0.20;0.20;;;3.80;99.90;;;;;;5002268;28;20045;-64
2023/04/03 03:43:17;;;;;;;0.10;0.10;;;3.80;99.90;;;;;;5004775;28;20049;-64
2023/04/03 03:45:43;;;;;;;0.20;0.20;;;3.70;99.90;;;;;;5004728;28;20142;-64
2023/04/03 03:48:09;;;;;;;0.10;0.10;;;3.70;99.90;;;;;;5004182;28;20092;-64
2023/04/03 03:50:34;;;;;;;0.10;0.10;;;3.70;99.90;;;;;;4996275;28;20046;-64
2023/04/03 03:53:00;;;;;;;0.10;0.10;;;3.70;99.90;;;;;;5010846;28;20057;-64
2023/04/03 03:55:26;;;;;;;0.10;0.10;;;3.60;99.90;;;;;;5004185;28;20111;-64
2023/04/03 03:57:52;;;;;;;0.10;0.10;;;3.60;99.90;;;;;;5001030;28;20041;-64
2023/04/03 04:00:17;;;;;;;0.10;0.10;;;3.50;99.90;;;;;;5006788;28;20065;-64
2023/04/03 04:02:43;;;;;;;0.10;0.10;;;3.60;99.90;;;;;;5006593;28;20041;-64
2023/04/03 04:05:09;;;;;;;0.10;0.10;;;3.60;99.90;;;;;;5008118;28;21263;-64
2023/04/03 04:07:35;;;;;;;0.00;0.00;;;3.60;99.90;;;;;;4999287;28;20035;-64
2023/04/03 04:10:00;;;;;;;0.10;0.10;;;3.60;99.90;;;;;;5005663;28;20041;-64
2023/04/03 04:12:26;;;;;;;0.10;0.10;;;3.50;99.90;;;;;;5009337;28;20037;-63
2023/04/03 04:14:52;;;;;;;0.10;0.10;;;3.50;99.90;;;;;;5003811;28;20956;-64
2023/04/03 04:17:17;;;;;;;0.13;0.13;;;3.50;99.90;;;;;;5005513;28;20157;-64
2023/04/03 04:19:43;;;;;;;0.10;0.10;;;3.50;99.90;;;;;;5009413;28;20045;-64
2023/04/03 04:22:09;;;;;;;0.10;0.10;;;3.40;99.90;;;;;;5009250;28;20398;-64
2023/04/03 04:24:34;;;;;;;0.35;0.35;;;3.40;99.90;;;;;;5008248;28;20046;-64
2023/04/03 04:27:00;;;;;;;0.10;0.10;;;3.40;99.90;;;;;;5009279;28;20425;-63
2023/04/03 04:29:25;;;;;;;0.10;0.10;;;3.40;99.90;;;;;;5009397;28;20100;-64
2023/04/03 04:31:51;;;;;;;0.10;0.10;;;3.40;99.90;;;;;;5001032;28;20049;-64
2023/04/03 04:34:16;;;;;;;0.20;0.20;;;3.40;99.90;;;;;;5006106;28;20069;-63
2023/04/03 04:36:42;;;;;;;0.10;0.10;;;3.30;99.90;;;;;;5007964;28;20424;-64
2023/04/03 04:39:08;;;;;;;0.10;0.10;;;3.30;99.90;;;;;;4994503;28;20884;-64
2023/04/03 04:41:34;;;;;;;0.10;0.10;;;3.30;99.90;;;;;;5006787;28;20052;-64
2023/04/03 04:44:00;;;;;;;0.10;0.10;;;3.30;99.90;;;;;;5000142;28;20504;-64
2023/04/03 04:46:26;;;;;;;0.10;0.10;;;3.30;99.90;;;;;;5006733;28;20129;-63
2023/04/03 04:48:51;;;;;;;0.10;0.10;;;3.20;99.90;;;;;;4999586;28;20142;-64
2023/04/03 04:51:17;;;;;;;0.10;0.10;;;3.20;99.90;;;;;;5003640;28;20042;-64
2023/04/03 04:53:43;;;;;;;0.10;0.10;;;3.20;99.90;;;;;;5001433;28;20050;-64
2023/04/03 04:56:09;;;;;;;0.10;0.10;;;3.20;99.90;;;;;;5001404;28;20037;-64
2023/04/03 04:58:35;;;;;;;0.10;0.10;;;3.10;99.90;;;;;;5001159;28;20070;-64
2023/04/03 05:01:05;;;;;;;0.10;0.10;;;3.00;99.90;;;;;;5006360;28;20038;-64
2023/04/03 05:03:31;;;;;;;0.17;0.17;;;3.00;99.90;;;;;;5001711;28;20053;-64
2023/04/03 05:05:57;;;;;;;0.10;0.10;;;3.00;99.90;;;;;;4998118;28;20034;-64
2023/04/03 05:08:23;;;;;;;0.10;0.10;;;3.00;99.90;;;;;;5007776;28;20088;-64
2023/04/03 05:10:49;;;;;;;0.17;0.17;;;3.00;99.90;;;;;;5002240;28;20410;-64
2023/04/03 05:13:14;;;;;;;0.10;0.10;;;3.10;99.90;;;;;;5005710;28;20042;-64
2023/04/03 05:15:40;;;;;;;1.35;1.25;;;3.10;99.90;;;;;;5000831;28;20375;-64
2023/04/03 05:18:06;;;;;;;1.00;0.90;;;3.00;99.90;;;;;;5001637;28;20537;-65
2023/04/03 05:20:33;;;;;;;0.10;0.10;;;3.10;99.90;;;;;;5006719;28;20042;-65
2023/04/03 05:22:59;;;;;;;0.10;0.10;;;3.10;99.90;;;;;;5005004;28;20509;-62
2023/04/03 05:25:25;;;;;;;4.28;2.47;;;3.00;99.90;;;;;;4999281;28;20090;-63
2023/04/03 05:27:50;;;;;;;0.30;0.30;;;3.00;99.90;;;;;;5006347;28;21895;-62
2023/04/03 05:30:16;;;;;;;0.40;0.40;;;3.00;99.90;;;;;;5008539;28;20124;-63
2023/04/03 05:32:42;;;;;;;0.10;0.10;;;3.10;99.90;;;;;;5002552;28;20049;-63
2023/04/03 05:35:08;;;;;;;0.20;0.20;;;3.00;99.90;;;;;;5005158;28;20473;-63
2023/04/03 05:37:34;;;;;;;0.10;0.10;;;2.90;99.90;;;;;;5008246;28;20133;-63
2023/04/03 05:40:00;;;;;;;0.17;0.17;;;3.00;99.90;;;;;;5006393;28;20076;-63
2023/04/03 05:42:26;;;;;;;0.10;0.10;;;3.00;99.90;;;;;;4998964;28;20498;-62
2023/04/03 05:44:51;;;;;;;0.10;0.10;;;3.00;99.90;;;;;;4999891;28;20050;-62
2023/04/03 05:47:18;;;;;;;0.10;0.10;;;3.00;99.90;;;;;;5002500;28;20501;-62
2023/04/03 05:49:45;;;;;;;0.10;0.10;;;3.00;99.90;;;;;;5005424;28;20038;-63
2023/04/03 05:52:36;;;;;;;0.10;0.10;;;3.00;99.90;;;;;;5005096;28;20069;-63
2023/04/03 05:55:01;;;;;;;11.82;1.27;;;3.00;99.90;;;;;;4995934;28;20564;-63
2023/04/03 05:57:27;;;;;;;0.10;0.10;;;3.00;99.90;;;;;;5008840;28;20045;-62
2023/04/03 05:59:52;;;;;;;0.10;0.10;;;3.10;99.90;;;;;;5008996;28;20073;-63
2023/04/03 06:02:21;;;;;;;0.10;0.10;;;3.10;99.90;;;;;;4997098;28;20042;-62
2023/04/03 06:04:47;;;;;;;0.10;0.10;;;3.10;99.90;;;;;;5006417;28;20066;-63
2023/04/03 06:07:16;;;;;;;0.10;0.10;;;3.10;99.90;;;;;;5007783;28;20116;-62
2023/04/03 06:09:42;;;;;;;0.00;0.00;;;3.20;99.90;;;;;;5005513;28;20094;-63
2023/04/03 06:12:08;;;;;;;0.10;0.10;;;3.10;99.90;;;;;;5007934;28;20048;-64
2023/04/03 06:14:35;;;;;;;0.10;0.10;;;3.10;99.90;;;;;;5002299;28;20096;-63
2023/04/03 06:17:01;;;;;;;0.10;0.10;;;3.20;99.90;;;;;;5003082;28;20053;-63
2023/04/03 06:19:27;;;;;;;0.10;0.10;;;3.20;99.90;;;;;;5001318;28;20049;-64
2023/04/03 06:21:52;;;;;;;0.22;0.22;;;3.30;99.90;;;;;;5006368;28;20042;-64
2023/04/03 06:24:21;;;;;;;0.17;0.17;;;3.30;99.90;;;;;;5005241;28;20052;-64
2023/04/03 06:26:47;;;;;;;0.10;0.10;;;3.30;99.90;;;;;;5008212;28;20049;-64
2023/04/03 06:29:13;;;;;;;0.10;0.10;;;3.40;99.90;;;;;;5011827;28;20077;-63
2023/04/03 06:31:39;;;;;;;0.20;0.20;;;3.40;99.90;;;;;;5010136;28;20076;-64
2023/04/03 06:34:07;;;;;;;0.17;0.17;;;3.50;99.90;;;;;;5010469;28;20042;-64
2023/04/03 06:36:33;;;;;;;0.10;0.10;;;3.50;99.90;;;;;;5006511;28;20121;-64
2023/04/03 06:38:59;;;;;;;0.10;0.10;;;3.50;99.90;;;;;;5013709;28;20042;-64
2023/04/03 06:41:26;;;;;;;0.20;0.20;;;3.50;99.90;;;;;;5011745;28;20045;-64
2023/04/03 06:43:51;;;;;;;0.20;0.20;;;3.60;99.90;;;;;;5006940;28;20414;-64
2023/04/03 06:46:21;;;;;;;0.10;0.10;;;3.70;99.90;;;;;;5008783;28;20054;-64
2023/04/03 06:48:48;;;;;;;0.50;0.50;;;3.70;99.90;;;;;;5013142;28;20519;-64
2023/04/03 06:51:28;;;;;;;0.10;0.10;;;3.70;99.90;;;;;;5008918;28;20132;-64
2023/04/03 06:53:57;;;;;;;0.17;0.17;;;3.70;99.90;;;;;;5009714;28;20456;-64
2023/04/03 06:56:24;;;;;;;0.10;0.10;;;3.90;99.90;;;;;;5009078;28;20042;-64
2023/04/03 06:58:51;;;;;;;0.00;0.00;;;3.90;99.90;;;;;;5004899;28;20128;-64
2023/04/03 07:01:18;;;;;;;0.20;0.20;;;3.90;99.90;;;;;;5012300;28;20041;-63
2023/04/03 07:03:46;;;;;;;0.10;0.10;;;4.00;99.90;;;;;;5004595;28;20050;-64
2023/04/03 07:06:12;;;;;;;0.35;0.35;;;4.00;99.90;;;;;;5010343;28;20093;-64
2023/04/03 07:08:38;;;;;;;0.10;0.10;;;4.10;99.90;;;;;;5013178;28;20049;-64
2023/04/03 07:11:05;;;;;;;0.10;0.10;;;4.20;99.90;;;;;;5006047;28;20045;-64
2023/04/03 07:13:31;;;;;;;0.10;0.10;;;4.30;99.90;;;;;;5008675;28;20058;-63
2023/04/03 07:15:57;;;;;;;1.55;0.80;;;4.40;99.90;;;;;;5006589;28;20088;-63
2023/04/03 07:18:23;;;;;;;0.10;0.10;;;4.40;99.90;;;;;;5005351;28;20172;-63
2023/04/03 07:20:48;;;;;;;0.20;0.20;;;4.40;99.90;;;;;;5003212;28;20081;-63
2023/04/03 07:23:14;;;;;;;7.68;2.65;;;4.40;99.90;;;;;;5008711;28;20045;-63
2023/04/03 07:25:47;;;;;;;0.10;0.10;;;4.40;99.90;;;;;;5006966;28;20049;-63
2023/04/03 07:28:14;;;;;;;0.10;0.10;;;4.50;99.90;;;;;;5000732;28;20048;-64
2023/04/03 07:31:08;;;;;;;0.28;0.28;;;4.50;99.90;;;;;;5006240;28;20405;-64
2023/04/03 07:33:34;;;;;;;0.10;0.10;;;4.60;99.90;;;;;;5001631;28;20068;-64
2023/04/03 07:36:01;;;;;;;0.10;0.10;;;4.60;99.90;;;;;;5006016;28;20042;-63
2023/04/03 07:38:27;;;;;;;0.10;0.10;;;4.80;99.90;;;;;;5009376;28;20045;-64
2023/04/03 07:40:54;;;;;;;0.30;0.30;;;4.80;99.90;;;;;;5009974;28;20038;-64
2023/04/03 07:43:21;;;;;;;0.50;0.50;;;4.80;99.90;;;;;;5000772;28;20057;-64
2023/04/03 07:45:49;;;;;;;0.10;0.10;;;4.90;99.90;;;;;;5010584;28;20069;-64
2023/04/03 07:48:16;;;;;;;0.10;0.10;;;4.90;99.90;;;;;;5004713;28;20072;-64
2023/04/03 07:50:41;;;;;;;1.08;1.05;;;4.90;99.90;;;;;;4998775;28;20441;-64
2023/04/03 07:53:07;;;;;;;0.30;0.30;;;5.00;99.90;;;;;;5010089;28;20050;-64
2023/04/03 07:55:33;;;;;;;0.10;0.10;;;5.00;99.90;;;;;;5015220;28;20068;-64
2023/04/03 07:57:59;;;;;;;0.10;0.10;;;5.10;99.90;;;;;;4995453;28;20154;-64
2023/04/03 08:00:24;;;;;;;0.10;0.10;;;5.20;99.90;;;;;;5020660;28;20042;-64
2023/04/03 08:02:51;;;;;;;0.10;0.10;;;5.20;99.90;;;;;;4998422;28;20053;-64
2023/04/03 08:05:21;;;;;;;0.10;0.10;;;5.30;99.90;;;;;;5002605;28;20113;-63
2023/04/03 08:07:46;;;;;;;0.10;0.10;;;5.40;99.90;;;;;;4996632;28;20516;-64
2023/04/03 08:10:13;;;;;;;0.17;0.17;;;5.50;99.90;;;;;;5008183;28;20038;-64
2023/04/03 08:12:39;;;;;;;0.15;0.15;;;5.50;99.90;;;;;;5004190;28;20042;-64
2023/04/03 08:15:05;;;;;;;2.92;1.83;;;5.70;99.90;;;;;;5000672;28;20895;-64
2023/04/03 08:17:30;;;;;;;0.10;0.10;;;6.40;99.90;;;;;;5010932;28;20450;-64
2023/04/03 08:19:56;;;;;;;0.10;0.10;;;6.90;99.90;;;;;;5010748;28;20086;-64
2023/04/03 08:22:22;;;;;;;0.10;0.10;;;7.60;99.90;;;;;;5001553;28;20065;-64
2023/04/03 08:24:47;;;;;;;0.10;0.10;;;8.10;99.90;;;;;;4996695;28;20397;-64
2023/04/03 08:27:13;;;;;;;0.10;0.10;;;8.70;99.90;;;;;;5009924;28;20038;-64
2023/04/03 08:29:38;;;;;;;0.10;0.10;;;9.60;99.90;;;;;;5007695;28;20152;-64
2023/04/03 08:32:05;;;;;;;0.20;0.20;;;9.90;99.90;;;;;;4993759;28;20042;-64
2023/04/03 08:34:34;;;;;;;0.30;0.30;;;10.30;99.30;;;;;;5005796;28;20525;-65
2023/04/03 08:37:01;;;;;;;0.35;0.35;;;10.60;99.00;;;;;;5011575;28;20088;-64
2023/04/03 08:39:27;;;;;;;0.10;0.10;;;11.50;98.90;;;;;;4999753;28;20133;-64
2023/04/03 08:41:56;;;;;;;0.52;0.52;;;11.40;95.70;;;;;;5004920;28;20041;-65
2023/04/03 08:44:54;;;;;;;0.13;0.13;;;11.30;95.70;;;;;;4996124;28;20839;-65
2023/04/03 08:47:36;;;;;;;0.05;0.05;;;11.50;94.70;;;;;;5005655;28;20129;-64
2023/04/03 08:50:12;;;;;;;0.10;0.10;;;11.80;94.80;;;;;;4995112;28;20110;-64
2023/04/03 08:52:41;;;;;;;1.88;0.40;;;12.30;94.40;;;;;;5007110;28;20504;-65
2023/04/03 08:55:19;;;;;;;1.00;0.60;;;12.80;94.10;;;;;;5006391;28;20069;-65
2023/04/03 08:57:48;;;;;;;1.35;1.00;;;13.10;93.60;;;;;;4992822;28;20414;-65
2023/04/03 09:00:14;;;;;;;0.10;0.10;;;13.10;91.60;;;;;;5004534;28;20133;-65
2023/04/03 09:02:46;;;;;;;0.00;0.00;;;13.20;92.40;;;;;;5010271;28;20130;-65
2023/04/03 09:05:16;;;;;;;0.10;0.10;;;13.30;90.90;;;;;;5002995;28;20132;-65
2023/04/03 09:07:49;;;;;;;0.10;0.10;;;13.00;90.50;;;;;;5009255;28;20133;-65
2023/04/03 09:10:18;;;;;;;0.43;0.43;;;13.60;91.30;;;;;;5000671;28;20386;-65
2023/04/03 09:12:57;;;;;;;0.00;0.00;;;13.40;89.50;;;;;;5001705;28;20500;-65
2023/04/03 09:15:25;;;;;;;0.00;0.00;;;13.70;87.60;;;;;;4991569;28;20031;-65
2023/04/03 09:18:10;;;;;;;0.00;0.00;;;13.70;87.60;;;;;;5005087;28;20073;-65
2023/04/03 09:21:01;;;;;;;0.00;0.00;;;13.80;85.60;;;;;;5015824;28;20465;-65
2023/04/03 09:23:49;;;;;;;0.10;0.10;;;13.80;86.00;;;;;;4999407;28;20077;-65
2023/04/03 09:26:30;;;;;;;0.00;0.00;;;14.10;87.20;;;;;;5007274;28;20038;-64
2023/04/03 09:29:01;;;;;;;0.10;0.10;;;14.00;85.10;;;;;;5002805;28;20062;-65
2023/04/03 09:31:37;;;;;;;0.10;0.10;;;13.60;85.40;;;;;;5008544;28;20049;-64
2023/04/03 09:34:09;;;;;;;0.00;0.00;;;14.00;84.40;;;;;;4998371;28;20556;-65
2023/04/03 09:36:51;;;;;;;0.10;0.10;;;13.80;82.50;;;;;;5006489;28;20099;-64
2023/04/03 09:39:26;;;;;;;0.10;0.10;;;14.10;85.30;;;;;;5016115;28;20046;-65
2023/04/03 09:42:15;;;;;;;1.20;0.38;;;14.10;83.10;;;;;;5001501;28;20486;-65
2023/04/03 09:44:41;;;;;;;0.00;0.00;;;14.20;84.60;;;;;;5000751;28;20054;-65
2023/04/03 09:47:33;;;;;;;0.10;0.10;;;14.10;81.40;;;;;;5004106;28;20136;-65
2023/04/03 09:50:14;;;;;;;0.57;0.57;;;14.50;83.60;;;;;;5006432;28;20383;-65
2023/04/03 09:52:45;;;;;;;0.00;0.00;;;14.50;81.90;;;;;;5011155;28;20049;-65
2023/04/03 09:55:18;;;;;;;0.00;0.00;;;14.60;80.40;;;;;;5014698;28;20370;-65
2023/04/03 09:57:45;;;;;;;0.10;0.10;;;14.90;79.40;;;;;;5004863;28;20385;-65
2023/04/03 10:00:33;;;;;;;0.40;0.40;;;14.70;81.30;;;;;;5026493;28;20463;-66
2023/04/03 10:02:59;;;;;;;0.00;0.00;;;14.70;80.30;;;;;;5004251;28;20053;-65
2023/04/03 10:05:39;;;;;;;0.00;0.00;;;14.80;79.10;;;;;;4995471;28;20512;-66
2023/04/03 10:08:14;;;;;;;0.10;0.10;;;14.40;77.20;;;;;;5019321;28;20045;-65
2023/04/03 10:10:46;;;;;;;0.00;0.00;;;14.40;80.00;;;;;;5010241;28;20444;-65
2023/04/03 10:13:16;;;;;;;0.10;0.10;;;14.80;80.90;;;;;;5003051;28;20045;-65
2023/04/03 10:16:06;;;;;;;0.00;0.00;;;14.80;82.10;;;;;;4994454;28;20046;-65
2023/04/03 10:18:44;;;;;;;0.00;0.00;;;14.70;78.50;;;;;;4992962;28;20084;-65
2023/04/03 10:21:25;;;;;;;0.10;0.10;;;14.30;77.50;;;;;;4998134;28;20042;-65
2023/04/03 10:24:13;;;;;;;0.10;0.10;;;14.20;79.20;;;;;;5007973;28;20050;-65
2023/04/03 10:27:09;;;;;;;0.43;0.43;;;14.00;77.30;;;;;;4999671;28;20052;-65
2023/04/03 10:30:12;;;;;;;0.10;0.10;;;14.00;77.30;;;;;;5009781;28;20072;-65
2023/04/03 10:32:38;;;;;;;0.10;0.10;;;14.00;77.60;;;;;;5001371;28;20053;-65
2023/04/03 10:35:28;;;;;;;0.00;0.00;;;14.00;79.10;;;;;;5009656;28;20414;-65
2023/04/03 10:38:15;;;;;;;0.40;0.40;;;14.10;77.50;;;;;;5010923;28;20556;-65
2023/04/03 10:41:00;;;;;;;0.10;0.10;;;13.80;78.50;;;;;;5009305;28;20057;-66
2023/04/03 10:43:35;;;;;;;0.00;0.00;;;13.70;77.80;;;;;;5003994;28;20057;-66
2023/04/03 10:46:08;;;;;;;0.10;0.10;;;13.80;80.50;;;;;;5001843;28;20667;-66
2023/04/03 10:49:12;;;;;;;0.10;0.10;;;13.70;76.00;;;;;;5002800;28;20161;-65
2023/04/03 10:51:38;;;;;;;0.10;0.10;;;13.80;77.60;;;;;;5011292;28;20141;-65
2023/04/03 10:54:24;;;;;;;0.00;0.00;;;13.80;78.00;;;;;;5002492;28;20120;-65
2023/04/03 10:56:56;;;;;;;0.00;0.00;;;13.80;78.00;;;;;;5006969;28;20038;-65
2023/04/03 10:59:30;;;;;;;0.00;0.00;;;13.70;75.60;;;;;;4999796;28;20050;-66
2023/04/03 11:02:24;;;;;;;0.10;0.10;;;13.60;75.00;;;;;;5008686;28;20300;-65
2023/04/03 11:05:22;;;;;;;0.00;0.00;;;13.60;74.50;;;;;;5006181;28;20050;-66
2023/04/03 11:07:53;;;;;;;0.03;0.03;;;13.70;76.80;;;;;;5003738;28;20057;-65
2023/04/03 11:10:42;;;;;;;0.10;0.10;;;13.90;75.80;;;;;;5005841;28;20121;-65
2023/04/03 11:13:25;;;;;;;0.10;0.10;;;14.20;79.10;;;;;;5008617;28;20123;-65
2023/04/03 11:15:53;;;;;;;0.10;0.10;;;14.50;75.20;;;;;;5011014;28;20088;-65
2023/04/03 11:18:27;;;;;;;0.10;0.10;;;14.30;78.20;;;;;;4994881;28;20506;-65
2023/04/03 11:21:12;;;;;;;0.00;0.00;;;14.40;77.00;;;;;;4998636;28;20133;-65
2023/04/03 11:23:40;;;;;;;0.10;0.10;;;13.90;74.70;;;;;;5013161;28;20041;-65
2023/04/03 11:26:12;;;;;;;0.10;0.10;;;14.10;75.70;;;;;;5008613;28;20045;-65
2023/04/03 11:28:38;;;;;;;0.08;0.08;;;14.10;75.60;;;;;;5003492;28;20041;-65
2023/04/03 11:31:26;;;;;;;0.13;0.13;;;14.30;78.40;;;;;;5000640;28;20056;-66
2023/04/03 11:33:58;;;;;;;0.38;0.38;;;14.30;76.70;;;;;;5001695;28;20049;-66
2023/04/03 11:36:40;;;;;;;0.10;0.10;;;14.20;76.40;;;;;;5008939;28;20489;-65
2023/04/03 11:39:20;;;;;;;0.00;0.00;;;14.30;76.80;;;;;;5001856;28;20042;-65
2023/04/03 11:41:47;;;;;;;0.50;0.50;;;14.80;80.60;;;;;;5000083;28;20498;-66
2023/04/03 11:44:38;;;;;;;0.40;0.40;;;14.70;75.00;;;;;;5000490;28;20117;-66
2023/04/03 11:47:07;;;;;;;1.20;0.75;;;14.40;75.70;;;;;;5007760;28;20056;-65
2023/04/03 11:49:59;;;;;;;0.43;0.35;;;14.70;74.40;;;;;;5003897;28;20042;-66
2023/04/03 11:52:39;;;;;;;0.15;0.15;;;14.90;75.20;;;;;;5001466;28;20037;-66
2023/04/03 11:55:20;;;;;;;0.00;0.00;;;14.80;75.90;;;;;;5014882;28;20046;-65
2023/04/03 11:57:58;;;;;;;0.13;0.13;;;15.20;76.70;;;;;;4996188;28;20536;-66
2023/04/03 12:00:46;;;;;;;0.00;0.00;;;14.90;74.60;;;;;;5006034;28;20049;-66
2023/04/03 12:03:24;;;;;;;0.10;0.10;;;15.20;75.70;;;;;;4985316;28;20069;-67
2023/04/03 12:05:57;;;;;;;0.00;0.00;;;15.20;74.10;;;;;;5009771;28;20054;-66
2023/04/03 12:08:29;;;;;;;0.00;0.00;;;15.50;76.40;;;;;;5008987;28;20037;-66
2023/04/03 12:11:12;;;;;;;0.00;0.00;;;15.70;73.90;;;;;;4998795;28;20328;-66
2023/04/03 12:13:53;;;;;;;;;;;15.40;76.20;;;;;;5005742;28;20046;-65
2023/04/03 12:16:31;;;;;;;0.00;0.00;;;15.50;76.30;;;;;;5001939;28;19930;-64
2023/04/03 12:19:18;;;;;;;0.10;0.10;;;15.50;73.60;;;;;;5008850;28;20042;-65
2023/04/03 12:21:44;;;;;;;0.00;0.00;;;15.40;74.20;;;;;;4990878;28;20866;-65
2023/04/03 12:24:10;;;;;;;0.00;0.00;;;15.90;77.30;;;;;;5003636;28;20081;-64
2023/04/03 12:26:58;;;;;;;0.10;0.10;;;16.00;73.50;;;;;;5005347;28;20093;-64
2023/04/03 12:29:32;;;;;;;0.10;0.10;;;16.00;77.60;;;;;;5011717;28;20045;-65
2023/04/03 12:32:12;;;;;;;0.00;0.00;;;16.30;78.60;;;;;;5010709;28;20482;-65
2023/04/03 12:35:12;;;;;;;0.00;0.00;;;16.30;76.40;;;;;;4996082;28;20672;-64
2023/04/03 12:38:10;;;;;;;0.00;0.00;;;16.30;76.80;;;;;;5008608;28;20049;-65
2023/04/03 12:40:41;;;;;;;0.00;0.00;;;16.30;72.70;;;;;;4994084;28;20145;-64
2023/04/03 12:43:32;;;;;;;0.57;0.43;;;15.90;72.00;;;;;;5002913;28;20033;-65
2023/04/03 12:46:06;;;;;;;0.00;0.00;;;15.70;73.00;;;;;;5001510;28;20144;-65
2023/04/03 12:48:39;;;;;;;0.17;0.17;;;15.80;73.20;;;;;;4997220;28;20054;-65
2023/04/03 12:51:05;;;;;;;0.00;0.00;;;15.90;73.90;;;;;;4997460;28;20069;-65
2023/04/03 12:53:38;;;;;;;0.00;0.00;;;15.90;74.40;;;;;;5004010;28;20042;-65
2023/04/03 12:56:27;;;;;;;0.00;0.00;;;16.50;75.30;;;;;;5009206;28;20076;-65
2023/04/03 12:58:57;;;;;;;0.05;0.05;;;16.60;71.20;;;;;;4998180;28;20042;-65
2023/04/03 13:01:25;;;;;;;0.00;0.00;;;16.80;72.50;;;;;;5007635;28;20061;-65
2023/04/03 13:03:56;;;;;;;0.00;0.00;;;16.50;71.10;;;;;;5005333;28;20049;-65
2023/04/03 13:06:37;;;;;;;0.00;0.00;;;17.10;73.40;;;;;;4990994;28;20070;-64
2023/04/03 13:09:04;;;;;;;0.05;0.05;;;17.10;75.20;;;;;;4994285;28;20073;-65